Carrier Princess — CZ3582 — position and weather

sailwx.info

Track history (hours):
 
Tides and Currents Weather Stations Pressure Air Temp Water Temp Dewpoint Dewpoint Depression Visibility Wind Speed Wind Dir Waves Ship Positions

Carrier Princess

Last reported at 2016-Dec-08 05:33 UTC. Time now 2016-Dec-08 05:58 UTC.
Position N 48°57' W 123°17'.

Length 112 m; draft 3 m.

Type: Cargo ship. MMSI: 316003656.

Date/timePositionNaut miles runAvg speedWind from/ knotsBaromVisibWave heightAir tempDewpointWater temp
2016-Dec-08 05:33N 48°57' W 123°17'1313.2
2016-Dec-08 04:33N 48°44' W 123°23'3 1.2
2016-Dec-08 02:19N 48°41' W 123°24'1112.9
2016-Dec-08 01:30N 48°52' W 123°19'1414.6
2016-Dec-08 00:33N 49°05' W 123°20'1211.8
2016-Dec-07 23:33N 49°09' W 123°02'0 0.0
2016-Dec-07 22:33N 49°09' W 123°02'3 3.1
2016-Dec-07 21:33N 49°07' W 123°06'1010.4
2016-Dec-07 20:33N 49°07' W 123°22'1312.7
2016-Dec-07 19:33N 49°10' W 123°41'10 9.1
2016-Dec-07 18:28N 49°10' W 123°56'0 0.0
2016-Dec-07 17:33N 49°10' W 123°56'0 0.0
2016-Dec-07 16:15N 49°10' W 123°56'0 0.0
2016-Dec-07 15:31N 49°10' W 123°56'0 0.0
2016-Dec-07 14:31N 49°10' W 123°56'0 0.0
2016-Dec-07 13:31N 49°10' W 123°56'0 0.0
2016-Dec-07 12:33N 49°10' W 123°56'4 4.0
2016-Dec-07 11:33N 49°13' W 123°52'1312.5
2016-Dec-07 10:29N 49°10' W 123°32'1213.1
2016-Dec-07 09:34N 49°08' W 123°13'7 7.4
2016-Dec-07 08:34N 49°09' W 123°02'0 0.0
2016-Dec-07 07:33N 49°09' W 123°02'5 5.1
2016-Dec-07 06:34N 49°06' W 123°09'8 8.0
2016-Dec-07 05:33N 49°01' W 123°18'1512.7
2016-Dec-07 04:21N 48°46' W 123°21'0 0.1
2016-Dec-07 01:31N 48°46' W 123°21'1111.4
2016-Dec-07 00:33N 48°57' W 123°18'1111.4
2016-Dec-06 23:33N 49°07' W 123°12'7 6.7
2016-Dec-06 22:34N 49°09' W 123°02'0 0.0
2016-Dec-06 21:33N 49°09' W 123°02'8 8.1
2016-Dec-06 20:34N 49°08' W 123°14'2713.1
2016-Dec-06 18:30N 49°10' W 123°55'0 0.2
2016-Dec-06 17:28N 49°10' W 123°56'0 0.0
2016-Dec-06 16:33N 49°10' W 123°56'0 0.0
2016-Dec-06 15:32N 49°10' W 123°56'0 0.0
2016-Dec-06 14:23N 49°10' W 123°56'0 0.0
2016-Dec-06 13:31N 49°10' W 123°56'0 0.0
2016-Dec-06 12:31N 49°10' W 123°56'3 3.3
2016-Dec-06 11:32N 49°12' W 123°53'1514.6
2016-Dec-06 10:32N 49°10' W 123°30'1414.2
2016-Dec-06 09:34N 49°07' W 123°10'5 5.4
2016-Dec-06 08:34N 49°09' W 123°02'0 0.0
2016-Dec-06 07:33N 49°09' W 123°02'7 6.5
2016-Dec-06 06:33N 49°07' W 123°12'9 9.1
2016-Dec-06 05:33N 48°59' W 123°15'1212.3
2016-Dec-06 04:33N 48°47' W 123°21'1 0.4
2016-Dec-06 01:31N 48°46' W 123°22'1313.5
2016-Dec-06 00:33N 48°58' W 123°18'1010.4
2016-Dec-05 23:34N 49°06' W 123°08'4 4.0
2016-Dec-05 22:27N 49°09' W 123°02'0 0.0
2016-Dec-05 21:33N 49°09' W 123°02'0 0.0
2016-Dec-05 20:33N 49°09' W 123°02'0 0.0
2016-Dec-05 19:34N 49°09' W 123°02'0 0.0
2016-Dec-05 18:33N 49°09' W 123°02'0 0.0
2016-Dec-05 17:33N 49°09' W 123°02'0 0.0
2016-Dec-05 16:33N 49°09' W 123°02'0 0.0
2016-Dec-05 15:33N 49°09' W 123°02'0 0.0
2016-Dec-05 14:34N 49°09' W 123°02'0 0.0
2016-Dec-05 13:34N 49°09' W 123°02'0 0.0
2016-Dec-05 12:33N 49°09' W 123°02'0 0.0
2016-Dec-05 11:34N 49°09' W 123°02'0 0.0
2016-Dec-05 10:34N 49°09' W 123°02'0 0.0
2016-Dec-05 09:34N 49°09' W 123°02'0 0.0
2016-Dec-05 08:34N 49°09' W 123°02'0 0.0
2016-Dec-05 07:34N 49°09' W 123°02'0 0.0
2016-Dec-05 06:33N 49°09' W 123°02'0 0.0
2016-Dec-05 05:33N 49°09' W 123°02'0 0.0
2016-Dec-05 04:34N 49°09' W 123°02'0 0.0
2016-Dec-05 03:33N 49°09' W 123°02'0 0.0
2016-Dec-05 02:33N 49°09' W 123°02'0 0.0
2016-Dec-05 01:33N 49°09' W 123°02'0 0.0
2016-Dec-05 00:33N 49°09' W 123°02'0 0.0
2016-Dec-04 23:33N 49°09' W 123°02'0 0.0
2016-Dec-04 22:34N 49°09' W 123°02'0 0.0
2016-Dec-04 21:33N 49°09' W 123°02'0 0.0
2016-Dec-04 20:33N 49°09' W 123°02'0 0.0
2016-Dec-04 19:34N 49°09' W 123°02'0 0.0
2016-Dec-04 18:33N 49°09' W 123°02'0 0.0
2016-Dec-04 17:33N 49°09' W 123°02'0 0.0
2016-Dec-04 16:34N 49°09' W 123°02'0 0.3
2016-Dec-04 15:34N 49°09' W 123°03'1111.2
2016-Dec-04 14:33N 49°06' W 123°19'1110.8
2016-Dec-04 13:33N 49°09' W 123°35'1010.0
2016-Dec-04 12:33N 49°13' W 123°49'5 5.2
2016-Dec-04 11:33N 49°10' W 123°56'0 0.0
2016-Dec-04 10:33N 49°10' W 123°56'1 0.6
2016-Dec-04 09:33N 49°10' W 123°55'8 8.4
2016-Dec-04 08:33N 49°12' W 123°43'1111.1
2016-Dec-04 07:33N 49°08' W 123°27'1413.7
2016-Dec-04 06:33N 49°07' W 123°06'3 3.1
2016-Dec-04 05:34N 49°09' W 123°02'0 0.0
2016-Dec-04 04:34N 49°09' W 123°02'0 0.0
2016-Dec-04 03:33N 49°09' W 123°02'0 0.0
2016-Dec-04 02:34N 49°09' W 123°02'0 0.0
2016-Dec-04 01:34N 49°09' W 123°02'0 0.0
2016-Dec-04 00:34N 49°09' W 123°02'6 5.6
2016-Dec-03 23:33N 49°07' W 123°10'9 8.6
2016-Dec-03 22:33N 49°07' W 123°23'1010.4
2016-Dec-03 21:33N 49°11' W 123°38'10 9.9
2016-Dec-03 20:33N 49°11' W 123°53'2 2.1
2016-Dec-03 19:33N 49°10' W 123°56'0 0.0
2016-Dec-03 18:33N 49°10' W 123°56'0 0.0
2016-Dec-03 17:33N 49°10' W 123°56'0 0.0
2016-Dec-03 16:33N 49°10' W 123°56'0 0.0
2016-Dec-03 15:33N 49°10' W 123°56'0 0.0
2016-Dec-03 14:31N 49°10' W 123°56'0 0.0
2016-Dec-03 13:33N 49°10' W 123°56'0 0.0
2016-Dec-03 12:33N 49°10' W 123°56'3 2.7
2016-Dec-03 11:34N 49°12' W 123°53'1211.6
2016-Dec-03 10:33N 49°11' W 123°36'1313.4
2016-Dec-03 09:33N 49°07' W 123°16'9 9.0
2016-Dec-03 08:34N 49°09' W 123°02'0 0.0
2016-Dec-03 07:33N 49°09' W 123°02'8 8.4
2016-Dec-03 06:33N 49°08' W 123°15'1211.6
2016-Dec-03 05:34N 48°56' W 123°19'1111.0
2016-Dec-03 04:33N 48°45' W 123°21'4 2.0
2016-Dec-03 02:20N 48°42' W 123°24'1013.2
2016-Dec-03 01:33N 48°51' W 123°21'1312.6
2016-Dec-03 00:33N 49°04' W 123°18'1111.5
2016-Dec-02 23:34N 49°09' W 123°02'0 0.1
2016-Dec-02 22:33N 49°09' W 123°02'0 0.3
2016-Dec-02 21:33N 49°09' W 123°03'1111.3
2016-Dec-02 20:34N 49°06' W 123°19'1413.8
2016-Dec-02 19:33N 49°11' W 123°39'1111.2
2016-Dec-02 18:33N 49°10' W 123°56'0 0.0
2016-Dec-02 17:34N 49°10' W 123°56'0 0.0
2016-Dec-02 16:33N 49°10' W 123°56'0 0.0
2016-Dec-02 15:33N 49°10' W 123°56'0 0.0
2016-Dec-02 14:33N 49°10' W 123°56'0 0.0
2016-Dec-02 13:33N 49°10' W 123°56'0 0.0
2016-Dec-02 12:33N 49°10' W 123°56'2 2.3
2016-Dec-02 11:33N 49°12' W 123°54'1212.5
2016-Dec-02 10:33N 49°10' W 123°35'1414.1
2016-Dec-02 09:33N 49°08' W 123°13'7 7.5
2016-Dec-02 08:33N 49°09' W 123°02'0 0.0
2016-Dec-02 07:33N 49°09' W 123°02'8 7.6
2016-Dec-02 06:33N 49°08' W 123°14'10 9.5
2016-Dec-02 05:34N 48°59' W 123°18'1110.7
2016-Dec-02 04:33N 48°48' W 123°21'1 0.2
2016-Dec-02 01:32N 48°48' W 123°21'1313.5
2016-Dec-02 00:33N 49°01' W 123°19'1111.1
2016-Dec-01 23:33N 49°07' W 123°05'2 2.5
2016-Dec-01 22:33N 49°09' W 123°02'1 0.6
2016-Dec-01 21:33N 49°08' W 123°03'1110.6
2016-Dec-01 20:33N 49°06' W 123°19'1313.0
2016-Dec-01 19:33N 49°10' W 123°38'1211.5
2016-Dec-01 18:31N 49°10' W 123°56'3 0.5
2016-Dec-01 11:33N 49°12' W 123°52'1312.7
2016-Dec-01 10:32N 49°10' W 123°33'1313.9
2016-Dec-01 09:33N 49°08' W 123°13'7 7.0
2016-Dec-01 08:33N 49°09' W 123°02'0 0.0
2016-Dec-01 07:34N 49°09' W 123°02'8 7.6
2016-Dec-01 06:34N 49°08' W 123°14'9 9.4
2016-Dec-01 05:34N 48°59' W 123°18'1511.4
2016-Dec-01 04:15N 48°44' W 123°23'3 1.1
2016-Dec-01 01:32N 48°47' W 123°21'1414.0
2016-Dec-01 00:33N 49°00' W 123°19'1010.1
2016-Nov-30 23:33N 49°07' W 123°07'3 3.5
2016-Nov-30 22:34N 49°09' W 123°02'0 0.0
2016-Nov-30 21:34N 49°09' W 123°02'6 6.1
2016-Nov-30 20:33N 49°07' W 123°11'1312.8
2016-Nov-30 19:33N 49°09' W 123°31'13 1.5
2016-Nov-30 11:20N 49°13' W 123°49'1013.3
2016-Nov-30 10:33N 49°11' W 123°33'1313.5
2016-Nov-30 09:34N 49°08' W 123°13'7 7.4
2016-Nov-30 08:33N 49°09' W 123°02'2 1.8
2016-Nov-30 07:33N 49°07' W 123°04'9 9.3
2016-Nov-30 06:33N 49°06' W 123°18'1211.7
2016-Nov-30 05:33N 48°54' W 123°17'14 4.1
2016-Nov-30 02:10N 48°42' W 123°24'1112.9
2016-Nov-30 01:19N 48°52' W 123°19'1215.4
2016-Nov-30 00:33N 49°04' W 123°19'1212.3
2016-Nov-29 23:33N 49°09' W 123°02'0 0.2
2016-Nov-29 22:33N 49°09' W 123°02'2 1.8
2016-Nov-29 21:33N 49°08' W 123°04'1211.5
2016-Nov-29 20:33N 49°06' W 123°22'1211.4
2016-Nov-29 19:32N 49°10' W 123°39'8 0.9
2016-Nov-29 11:31N 49°13' W 123°49'1313.2
2016-Nov-29 10:33N 49°10' W 123°30'1212.2
2016-Nov-29 09:33N 49°07' W 123°12'7 6.8
2016-Nov-29 08:33N 49°09' W 123°02'0 0.3
2016-Nov-29 07:33N 49°09' W 123°03'9 9.2
2016-Nov-29 06:33N 49°07' W 123°16'1111.5
2016-Nov-29 05:33N 48°55' W 123°17'14 4.3
2016-Nov-29 02:09N 48°42' W 123°24'1112.6
2016-Nov-29 01:19N 48°52' W 123°19'1114.6
2016-Nov-29 00:33N 49°03' W 123°19'1111.2
2016-Nov-28 23:33N 49°08' W 123°04'1 1.3
2016-Nov-28 22:31N 49°09' W 123°02'0 0.0
2016-Nov-28 21:32N 49°09' W 123°02'0 0.0
2016-Nov-28 20:32N 49°09' W 123°02'0 0.0
2016-Nov-28 19:32N 49°09' W 123°02'0 0.0
2016-Nov-28 18:32N 49°09' W 123°02'0 0.0
2016-Nov-28 17:32N 49°09' W 123°02'0 0.0
2016-Nov-28 16:32N 49°09' W 123°02'0 0.0
2016-Nov-28 15:32N 49°09' W 123°02'0 0.0
2016-Nov-28 14:32N 49°09' W 123°02'0 0.0
2016-Nov-28 13:32N 49°09' W 123°02'0 0.0
2016-Nov-28 12:32N 49°09' W 123°02'0 0.0
2016-Nov-28 11:32N 49°09' W 123°02'0 0.0
2016-Nov-28 10:32N 49°09' W 123°02'0 0.0
2016-Nov-28 09:32N 49°09' W 123°02'0 0.0
2016-Nov-28 08:32N 49°09' W 123°02'0 0.0
2016-Nov-28 07:32N 49°09' W 123°02'0 0.0
2016-Nov-28 06:32N 49°09' W 123°02'  
Track history (hours):
 
Tides and Currents Weather Stations Pressure Air Temp Water Temp Dewpoint Dewpoint Depression Visibility Wind Speed Wind Dir Waves Ship Positions

Carrier Princess

Last reported at 2016-Dec-08 05:33 UTC. Time now 2016-Dec-08 05:58 UTC.
Position N 48°57' W 123°17'.

Length 112 m; draft 3 m.

Type: Cargo ship. MMSI: 316003656.

Date/timePositionNaut miles runAvg speedWind from/ knotsBaromVisibWave heightAir tempDewpointWater temp
2016-Dec-08 05:33N 48°57' W 123°17'1313.2
2016-Dec-08 04:33N 48°44' W 123°23'3 1.2
2016-Dec-08 02:19N 48°41' W 123°24'1112.9
2016-Dec-08 01:30N 48°52' W 123°19'1414.6
2016-Dec-08 00:33N 49°05' W 123°20'1211.8
2016-Dec-07 23:33N 49°09' W 123°02'0 0.0
2016-Dec-07 22:33N 49°09' W 123°02'3 3.1
2016-Dec-07 21:33N 49°07' W 123°06'1010.4
2016-Dec-07 20:33N 49°07' W 123°22'1312.7
2016-Dec-07 19:33N 49°10' W 123°41'10 9.1
2016-Dec-07 18:28N 49°10' W 123°56'0 0.0
2016-Dec-07 17:33N 49°10' W 123°56'0 0.0
2016-Dec-07 16:15N 49°10' W 123°56'0 0.0
2016-Dec-07 15:31N 49°10' W 123°56'0 0.0
2016-Dec-07 14:31N 49°10' W 123°56'0 0.0
2016-Dec-07 13:31N 49°10' W 123°56'0 0.0
2016-Dec-07 12:33N 49°10' W 123°56'4 4.0
2016-Dec-07 11:33N 49°13' W 123°52'1312.5
2016-Dec-07 10:29N 49°10' W 123°32'1213.1
2016-Dec-07 09:34N 49°08' W 123°13'7 7.4
2016-Dec-07 08:34N 49°09' W 123°02'0 0.0
2016-Dec-07 07:33N 49°09' W 123°02'5 5.1
2016-Dec-07 06:34N 49°06' W 123°09'8 8.0
2016-Dec-07 05:33N 49°01' W 123°18'1512.7
2016-Dec-07 04:21N 48°46' W 123°21'0 0.1
2016-Dec-07 01:31N 48°46' W 123°21'1111.4
2016-Dec-07 00:33N 48°57' W 123°18'1111.4
2016-Dec-06 23:33N 49°07' W 123°12'7 6.7
2016-Dec-06 22:34N 49°09' W 123°02'0 0.0
2016-Dec-06 21:33N 49°09' W 123°02'8 8.1
2016-Dec-06 20:34N 49°08' W 123°14'2713.1
2016-Dec-06 18:30N 49°10' W 123°55'0 0.2
2016-Dec-06 17:28N 49°10' W 123°56'0 0.0
2016-Dec-06 16:33N 49°10' W 123°56'0 0.0
2016-Dec-06 15:32N 49°10' W 123°56'0 0.0
2016-Dec-06 14:23N 49°10' W 123°56'0 0.0
2016-Dec-06 13:31N 49°10' W 123°56'0 0.0
2016-Dec-06 12:31N 49°10' W 123°56'3 3.3
2016-Dec-06 11:32N 49°12' W 123°53'1514.6
2016-Dec-06 10:32N 49°10' W 123°30'1414.2
2016-Dec-06 09:34N 49°07' W 123°10'5 5.4
2016-Dec-06 08:34N 49°09' W 123°02'0 0.0
2016-Dec-06 07:33N 49°09' W 123°02'7 6.5
2016-Dec-06 06:33N 49°07' W 123°12'9 9.1
2016-Dec-06 05:33N 48°59' W 123°15'1212.3
2016-Dec-06 04:33N 48°47' W 123°21'1 0.4
2016-Dec-06 01:31N 48°46' W 123°22'1313.5
2016-Dec-06 00:33N 48°58' W 123°18'1010.4
2016-Dec-05 23:34N 49°06' W 123°08'4 4.0
2016-Dec-05 22:27N 49°09' W 123°02'0 0.0
2016-Dec-05 21:33N 49°09' W 123°02'0 0.0
2016-Dec-05 20:33N 49°09' W 123°02'0 0.0
2016-Dec-05 19:34N 49°09' W 123°02'0 0.0
2016-Dec-05 18:33N 49°09' W 123°02'0 0.0
2016-Dec-05 17:33N 49°09' W 123°02'0 0.0
2016-Dec-05 16:33N 49°09' W 123°02'0 0.0
2016-Dec-05 15:33N 49°09' W 123°02'0 0.0
2016-Dec-05 14:34N 49°09' W 123°02'0 0.0
2016-Dec-05 13:34N 49°09' W 123°02'0 0.0
2016-Dec-05 12:33N 49°09' W 123°02'0 0.0
2016-Dec-05 11:34N 49°09' W 123°02'0 0.0
2016-Dec-05 10:34N 49°09' W 123°02'0 0.0
2016-Dec-05 09:34N 49°09' W 123°02'0 0.0
2016-Dec-05 08:34N 49°09' W 123°02'0 0.0
2016-Dec-05 07:34N 49°09' W 123°02'0 0.0
2016-Dec-05 06:33N 49°09' W 123°02'0 0.0
2016-Dec-05 05:33N 49°09' W 123°02'0 0.0
2016-Dec-05 04:34N 49°09' W 123°02'0 0.0
2016-Dec-05 03:33N 49°09' W 123°02'0 0.0
2016-Dec-05 02:33N 49°09' W 123°02'0 0.0
2016-Dec-05 01:33N 49°09' W 123°02'0 0.0
2016-Dec-05 00:33N 49°09' W 123°02'0 0.0
2016-Dec-04 23:33N 49°09' W 123°02'0 0.0
2016-Dec-04 22:34N 49°09' W 123°02'0 0.0
2016-Dec-04 21:33N 49°09' W 123°02'0 0.0
2016-Dec-04 20:33N 49°09' W 123°02'0 0.0
2016-Dec-04 19:34N 49°09' W 123°02'0 0.0
2016-Dec-04 18:33N 49°09' W 123°02'0 0.0
2016-Dec-04 17:33N 49°09' W 123°02'0 0.0
2016-Dec-04 16:34N 49°09' W 123°02'0 0.3
2016-Dec-04 15:34N 49°09' W 123°03'1111.2
2016-Dec-04 14:33N 49°06' W 123°19'1110.8
2016-Dec-04 13:33N 49°09' W 123°35'1010.0
2016-Dec-04 12:33N 49°13' W 123°49'5 5.2
2016-Dec-04 11:33N 49°10' W 123°56'0 0.0
2016-Dec-04 10:33N 49°10' W 123°56'1 0.6
2016-Dec-04 09:33N 49°10' W 123°55'8 8.4
2016-Dec-04 08:33N 49°12' W 123°43'1111.1
2016-Dec-04 07:33N 49°08' W 123°27'1413.7
2016-Dec-04 06:33N 49°07' W 123°06'3 3.1
2016-Dec-04 05:34N 49°09' W 123°02'0 0.0
2016-Dec-04 04:34N 49°09' W 123°02'0 0.0
2016-Dec-04 03:33N 49°09' W 123°02'0 0.0
2016-Dec-04 02:34N 49°09' W 123°02'0 0.0
2016-Dec-04 01:34N 49°09' W 123°02'0 0.0
2016-Dec-04 00:34N 49°09' W 123°02'6 5.6
2016-Dec-03 23:33N 49°07' W 123°10'9 8.6
2016-Dec-03 22:33N 49°07' W 123°23'1010.4
2016-Dec-03 21:33N 49°11' W 123°38'10 9.9
2016-Dec-03 20:33N 49°11' W 123°53'2 2.1
2016-Dec-03 19:33N 49°10' W 123°56'0 0.0
2016-Dec-03 18:33N 49°10' W 123°56'0 0.0
2016-Dec-03 17:33N 49°10' W 123°56'0 0.0
2016-Dec-03 16:33N 49°10' W 123°56'0 0.0
2016-Dec-03 15:33N 49°10' W 123°56'0 0.0
2016-Dec-03 14:31N 49°10' W 123°56'0 0.0
2016-Dec-03 13:33N 49°10' W 123°56'0 0.0
2016-Dec-03 12:33N 49°10' W 123°56'3 2.7
2016-Dec-03 11:34N 49°12' W 123°53'1211.6
2016-Dec-03 10:33N 49°11' W 123°36'1313.4
2016-Dec-03 09:33N 49°07' W 123°16'9 9.0
2016-Dec-03 08:34N 49°09' W 123°02'0 0.0
2016-Dec-03 07:33N 49°09' W 123°02'8 8.4
2016-Dec-03 06:33N 49°08' W 123°15'1211.6
2016-Dec-03 05:34N 48°56' W 123°19'1111.0
2016-Dec-03 04:33N 48°45' W 123°21'4 2.0
2016-Dec-03 02:20N 48°42' W 123°24'1013.2
2016-Dec-03 01:33N 48°51' W 123°21'1312.6
2016-Dec-03 00:33N 49°04' W 123°18'1111.5
2016-Dec-02 23:34N 49°09' W 123°02'0 0.1
2016-Dec-02 22:33N 49°09' W 123°02'0 0.3
2016-Dec-02 21:33N 49°09' W 123°03'1111.3
2016-Dec-02 20:34N 49°06' W 123°19'1413.8
2016-Dec-02 19:33N 49°11' W 123°39'1111.2
2016-Dec-02 18:33N 49°10' W 123°56'0 0.0
2016-Dec-02 17:34N 49°10' W 123°56'0 0.0
2016-Dec-02 16:33N 49°10' W 123°56'0 0.0
2016-Dec-02 15:33N 49°10' W 123°56'0 0.0
2016-Dec-02 14:33N 49°10' W 123°56'0 0.0
2016-Dec-02 13:33N 49°10' W 123°56'0 0.0
2016-Dec-02 12:33N 49°10' W 123°56'2 2.3
2016-Dec-02 11:33N 49°12' W 123°54'1212.5
2016-Dec-02 10:33N 49°10' W 123°35'1414.1
2016-Dec-02 09:33N 49°08' W 123°13'7 7.5
2016-Dec-02 08:33N 49°09' W 123°02'0 0.0
2016-Dec-02 07:33N 49°09' W 123°02'8 7.6
2016-Dec-02 06:33N 49°08' W 123°14'10 9.5
2016-Dec-02 05:34N 48°59' W 123°18'1110.7
2016-Dec-02 04:33N 48°48' W 123°21'1 0.2
2016-Dec-02 01:32N 48°48' W 123°21'1313.5
2016-Dec-02 00:33N 49°01' W 123°19'1111.1
2016-Dec-01 23:33N 49°07' W 123°05'2 2.5
2016-Dec-01 22:33N 49°09' W 123°02'1 0.6
2016-Dec-01 21:33N 49°08' W 123°03'1110.6
2016-Dec-01 20:33N 49°06' W 123°19'1313.0
2016-Dec-01 19:33N 49°10' W 123°38'1211.5
2016-Dec-01 18:31N 49°10' W 123°56'3 0.5
2016-Dec-01 11:33N 49°12' W 123°52'1312.7
2016-Dec-01 10:32N 49°10' W 123°33'1313.9
2016-Dec-01 09:33N 49°08' W 123°13'7 7.0
2016-Dec-01 08:33N 49°09' W 123°02'0 0.0
2016-Dec-01 07:34N 49°09' W 123°02'8 7.6
2016-Dec-01 06:34N 49°08' W 123°14'9 9.4
2016-Dec-01 05:34N 48°59' W 123°18'1511.4
2016-Dec-01 04:15N 48°44' W 123°23'3 1.1
2016-Dec-01 01:32N 48°47' W 123°21'1414.0
2016-Dec-01 00:33N 49°00' W 123°19'1010.1
2016-Nov-30 23:33N 49°07' W 123°07'3 3.5
2016-Nov-30 22:34N 49°09' W 123°02'0 0.0
2016-Nov-30 21:34N 49°09' W 123°02'6 6.1
2016-Nov-30 20:33N 49°07' W 123°11'1312.8
2016-Nov-30 19:33N 49°09' W 123°31'13 1.5
2016-Nov-30 11:20N 49°13' W 123°49'1013.3
2016-Nov-30 10:33N 49°11' W 123°33'1313.5
2016-Nov-30 09:34N 49°08' W 123°13'7 7.4
2016-Nov-30 08:33N 49°09' W 123°02'2 1.8
2016-Nov-30 07:33N 49°07' W 123°04'9 9.3
2016-Nov-30 06:33N 49°06' W 123°18'1211.7
2016-Nov-30 05:33N 48°54' W 123°17'14 4.1
2016-Nov-30 02:10N 48°42' W 123°24'1112.9
2016-Nov-30 01:19N 48°52' W 123°19'1215.4
2016-Nov-30 00:33N 49°04' W 123°19'1212.3
2016-Nov-29 23:33N 49°09' W 123°02'0 0.2
2016-Nov-29 22:33N 49°09' W 123°02'2 1.8
2016-Nov-29 21:33N 49°08' W 123°04'1211.5
2016-Nov-29 20:33N 49°06' W 123°22'1211.4
2016-Nov-29 19:32N 49°10' W 123°39'8 0.9
2016-Nov-29 11:31N 49°13' W 123°49'1313.2
2016-Nov-29 10:33N 49°10' W 123°30'1212.2
2016-Nov-29 09:33N 49°07' W 123°12'7 6.8
2016-Nov-29 08:33N 49°09' W 123°02'0 0.3
2016-Nov-29 07:33N 49°09' W 123°03'9 9.2
2016-Nov-29 06:33N 49°07' W 123°16'1111.5
2016-Nov-29 05:33N 48°55' W 123°17'14 4.3
2016-Nov-29 02:09N 48°42' W 123°24'1112.6
2016-Nov-29 01:19N 48°52' W 123°19'1114.6
2016-Nov-29 00:33N 49°03' W 123°19'1111.2
2016-Nov-28 23:33N 49°08' W 123°04'1 1.3
2016-Nov-28 22:31N 49°09' W 123°02'0 0.0
2016-Nov-28 21:32N 49°09' W 123°02'0 0.0
2016-Nov-28 20:32N 49°09' W 123°02'0 0.0
2016-Nov-28 19:32N 49°09' W 123°02'0 0.0
2016-Nov-28 18:32N 49°09' W 123°02'0 0.0
2016-Nov-28 17:32N 49°09' W 123°02'0 0.0
2016-Nov-28 16:32N 49°09' W 123°02'0 0.0
2016-Nov-28 15:32N 49°09' W 123°02'0 0.0
2016-Nov-28 14:32N 49°09' W 123°02'0 0.0
2016-Nov-28 13:32N 49°09' W 123°02'0 0.0
2016-Nov-28 12:32N 49°09' W 123°02'0 0.0
2016-Nov-28 11:32N 49°09' W 123°02'0 0.0
2016-Nov-28 10:32N 49°09' W 123°02'0 0.0
2016-Nov-28 09:32N 49°09' W 123°02'0 0.0
2016-Nov-28 08:32N 49°09' W 123°02'0 0.0
2016-Nov-28 07:32N 49°09' W 123°02'0 0.0
2016-Nov-28 06:32N 49°09' W 123°02'  

Dump ship's entire track history